createdAt,value
2022-12-11T00:01:21.700Z,98292.50
2022-12-11T00:03:51.607Z,98268.34
2022-12-11T00:06:22.958Z,98270.75
2022-12-11T00:08:53.538Z,98284.03
2022-12-11T00:11:24.102Z,98269.50
2022-12-11T00:14:00.564Z,98268.53
2022-12-11T00:16:46.360Z,98275.88
2022-12-11T00:19:15.587Z,98275.28
2022-12-11T00:21:52.597Z,98262.88
2022-12-11T00:24:23.482Z,98251.91
2022-12-11T00:26:55.478Z,98249.66
2022-12-11T00:29:41.091Z,98252.34
2022-12-11T00:32:10.612Z,98232.34
2022-12-11T00:34:40.406Z,98238.78
2022-12-11T00:37:14.651Z,98243.22
2022-12-11T00:39:51.344Z,98244.13
2022-12-11T00:42:23.656Z,98267.91
2022-12-11T00:44:56.546Z,98262.44
2022-12-11T00:47:24.963Z,98272.66
2022-12-11T00:49:53.833Z,98260.19
2022-12-11T00:52:28.012Z,98296.06
2022-12-11T00:54:56.511Z,98275.38
2022-12-11T00:57:33.043Z,98286.97
2022-12-11T01:00:09.652Z,98271.00
2022-12-11T01:02:41.448Z,98270.47
2022-12-11T01:05:14.329Z,98291.06
2022-12-11T01:07:49.096Z,98308.25
2022-12-11T01:10:29.524Z,98276.91
2022-12-11T01:13:04.079Z,98293.69
2022-12-11T01:15:44.512Z,98319.72
2022-12-11T01:18:16.157Z,98280.16
2022-12-11T01:20:46.458Z,98292.06
2022-12-11T01:23:15.460Z,98281.19
2022-12-11T01:25:46.553Z,98287.75
2022-12-11T01:28:16.155Z,98301.25
2022-12-11T01:30:46.227Z,98282.88
2022-12-11T01:33:15.520Z,98280.88
2022-12-11T01:35:44.562Z,98280.91
2022-12-11T01:38:17.867Z,98281.84
2022-12-11T01:40:57.229Z,98289.69
2022-12-11T01:43:26.751Z,98291.69
2022-12-11T01:46:01.487Z,98283.84
2022-12-11T01:48:42.453Z,98308.50
2022-12-11T01:51:11.672Z,98294.25
2022-12-11T01:53:42.823Z,98295.28
2022-12-11T01:56:13.945Z,98296.97
2022-12-11T01:58:51.868Z,98298.75
2022-12-11T02:01:31.045Z,98295.34
2022-12-11T02:04:03.143Z,98305.34
2022-12-11T02:06:34.030Z,98305.47
2022-12-11T02:09:05.437Z,98305.94
2022-12-11T02:11:47.626Z,98297.34
2022-12-11T02:14:26.835Z,98311.72
2022-12-11T02:17:04.797Z,98323.97
2022-12-11T02:19:56.750Z,98316.59
2022-12-11T02:22:34.949Z,98317.75
2022-12-11T02:25:12.662Z,98334.63
2022-12-11T02:28:01.034Z,98322.16
2022-12-11T02:30:43.652Z,98331.47
2022-12-11T02:33:16.449Z,98303.69
2022-12-11T02:35:49.851Z,98330.28
2022-12-11T02:38:21.110Z,98300.44
2022-12-11T02:40:59.433Z,98306.09
2022-12-11T02:43:31.871Z,98308.81
2022-12-11T02:46:04.855Z,98312.22
2022-12-11T02:48:36.877Z,98302.59
2022-12-11T02:51:08.782Z,98308.31
2022-12-11T02:53:47.111Z,98313.25
2022-12-11T02:56:28.962Z,98307.22
2022-12-11T02:59:04.869Z,98299.34
2022-12-11T03:01:44.548Z,98288.25
2022-12-11T03:04:12.788Z,98295.31
2022-12-11T03:06:45.543Z,98301.94
2022-12-11T03:09:16.974Z,98287.16
2022-12-11T03:11:51.967Z,98290.78
2022-12-11T03:14:21.526Z,98288.47
2022-12-11T03:17:11.098Z,98294.22
2022-12-11T03:19:46.688Z,98295.25
2022-12-11T03:22:21.082Z,98286.38
2022-12-11T03:24:52.570Z,98314.28
2022-12-11T03:27:35.660Z,98308.78
2022-12-11T03:30:20.973Z,98320.06
2022-12-11T03:33:07.175Z,98298.31
2022-12-11T03:35:37.428Z,98291.22
2022-12-11T03:38:08.872Z,98300.47
2022-12-11T03:40:38.316Z,98304.31
2022-12-11T03:43:07.083Z,98305.25
2022-12-11T03:45:36.043Z,98295.88
2022-12-11T03:48:07.263Z,98320.06
2022-12-11T03:50:40.892Z,98331.69
2022-12-11T03:53:12.725Z,98293.72
2022-12-11T03:55:42.929Z,98304.75
2022-12-11T03:58:14.847Z,98303.69
2022-12-11T04:00:56.548Z,98303.50
2022-12-11T04:03:40.745Z,98310.25
2022-12-11T04:06:09.640Z,98303.59
2022-12-11T04:08:48.064Z,98304.06
2022-12-11T04:11:35.849Z,98312.69
2022-12-11T04:14:25.956Z,98312.78
2022-12-11T04:17:03.706Z,98328.25
2022-12-11T04:19:50.876Z,98310.25
2022-12-11T04:22:39.915Z,98313.50
2022-12-11T04:25:09.488Z,98328.47
2022-12-11T04:27:55.622Z,98298.25
2022-12-11T04:30:41.570Z,98317.94
2022-12-11T04:33:10.448Z,98308.88
2022-12-11T04:35:56.167Z,98309.25
2022-12-11T04:38:34.093Z,98304.34
2022-12-11T04:41:03.156Z,98316.31
2022-12-11T04:43:31.651Z,98308.19
2022-12-11T04:46:14.776Z,98315.81
2022-12-11T04:48:44.278Z,98324.31
2022-12-11T04:51:20.395Z,98318.94
2022-12-11T04:53:51.127Z,98300.53
2022-12-11T04:56:25.514Z,98301.38
2022-12-11T04:58:54.541Z,98313.44
2022-12-11T05:01:24.939Z,98312.47
2022-12-11T05:04:01.368Z,98320.34
2022-12-11T05:06:32.241Z,98323.50
2022-12-11T05:09:02.957Z,98324.22
2022-12-11T05:11:35.262Z,98336.66
2022-12-11T05:14:09.584Z,98324.22
2022-12-11T05:16:41.589Z,98322.16
2022-12-11T05:19:21.812Z,98341.41
2022-12-11T05:22:01.084Z,98340.09
2022-12-11T05:24:31.142Z,98354.31
2022-12-11T05:27:01.449Z,98344.84
2022-12-11T05:29:32.125Z,98342.84
2022-12-11T05:32:07.730Z,98357.53
2022-12-11T05:34:43.665Z,98358.84
2022-12-11T05:37:21.310Z,98358.84
2022-12-11T05:40:00.965Z,98356.31
2022-12-11T05:42:34.956Z,98352.28
2022-12-11T05:45:05.683Z,98362.31
2022-12-11T05:47:38.977Z,98364.72
2022-12-11T05:50:12.516Z,98367.06
2022-12-11T05:52:51.041Z,98372.09
2022-12-11T05:55:29.132Z,98385.69
2022-12-11T05:58:05.334Z,98379.50
2022-12-11T06:00:36.300Z,98375.91
2022-12-11T06:03:08.501Z,98382.19
2022-12-11T06:05:50.757Z,98403.78
2022-12-11T06:08:23.196Z,98398.63
2022-12-11T06:10:52.244Z,98388.94
2022-12-11T06:13:21.771Z,98395.13
2022-12-11T06:15:50.873Z,98391.41
2022-12-11T06:18:21.972Z,98392.91
2022-12-11T06:21:01.649Z,98389.34
2022-12-11T06:23:32.676Z,98400.47
2022-12-11T06:26:07.448Z,98405.06
2022-12-11T06:28:37.237Z,98408.16
2022-12-11T06:31:09.569Z,98415.50
2022-12-11T06:33:45.796Z,98413.00
2022-12-11T06:36:17.602Z,98422.66
2022-12-11T06:38:58.384Z,98424.81
2022-12-11T06:41:26.887Z,98415.50
2022-12-11T06:43:56.368Z,98411.91
2022-12-11T06:46:33.769Z,98411.69
2022-12-11T06:49:06.548Z,98419.09
2022-12-11T06:51:37.624Z,98407.84
2022-12-11T06:54:25.810Z,98418.03
2022-12-11T06:56:55.481Z,98414.66
2022-12-11T06:59:27.629Z,98435.81
2022-12-11T07:01:59.228Z,98428.19
2022-12-11T07:04:28.552Z,98426.75
2022-12-11T07:06:57.337Z,98435.22
2022-12-11T07:09:41.504Z,98429.00
2022-12-11T07:12:11.500Z,98457.19
2022-12-11T07:14:48.195Z,98449.00
2022-12-11T07:17:17.941Z,98477.34
2022-12-11T07:19:49.849Z,98446.91
2022-12-11T07:22:20.213Z,98459.91
2022-12-11T07:25:03.858Z,98440.66
2022-12-11T07:27:34.544Z,98467.13
2022-12-11T07:30:15.685Z,98452.84
2022-12-11T07:32:46.459Z,98432.31
2022-12-11T07:35:16.632Z,98450.78
2022-12-11T07:37:47.149Z,98450.47
2022-12-11T07:40:27.813Z,98443.13
2022-12-11T07:43:02.011Z,98465.94
2022-12-11T07:45:42.349Z,98446.66
2022-12-11T07:48:20.110Z,98441.88
2022-12-11T07:50:48.453Z,98430.16
2022-12-11T07:53:16.753Z,98448.53
2022-12-11T07:55:47.813Z,98471.75
2022-12-11T07:58:17.210Z,98448.72
2022-12-11T08:00:49.734Z,98457.25
2022-12-11T08:03:18.360Z,98438.38
2022-12-11T08:05:49.941Z,98462.50
2022-12-11T08:08:18.907Z,98453.41
2022-12-11T08:11:04.957Z,98436.78
2022-12-11T08:13:50.201Z,98445.53
2022-12-11T08:16:28.305Z,98472.41
2022-12-11T08:19:01.165Z,98453.63
2022-12-11T08:21:37.643Z,98457.94
2022-12-11T08:24:17.570Z,98450.38
2022-12-11T08:26:56.892Z,98455.81
2022-12-11T08:29:31.509Z,98490.91
2022-12-11T08:32:04.368Z,98444.44
2022-12-11T08:34:39.796Z,98477.09
2022-12-11T08:37:09.880Z,98457.38
2022-12-11T08:39:41.659Z,98491.47
2022-12-11T08:42:11.359Z,98481.59
2022-12-11T08:44:39.633Z,98482.03
2022-12-11T08:47:11.032Z,98475.47
2022-12-11T08:49:40.657Z,98487.06
2022-12-11T08:52:08.898Z,98477.09
2022-12-11T08:54:42.915Z,98486.41
2022-12-11T08:57:13.987Z,98494.97
2022-12-11T08:59:47.445Z,98512.19
2022-12-11T09:02:15.790Z,98488.84
2022-12-11T09:05:00.293Z,98485.25
2022-12-11T09:07:36.675Z,98490.56
2022-12-11T09:10:07.428Z,98475.03
2022-12-11T09:12:39.048Z,98495.38
2022-12-11T09:15:10.835Z,98496.75
2022-12-11T09:17:39.090Z,98480.56
2022-12-11T09:20:12.391Z,98472.41
2022-12-11T09:22:43.471Z,98464.22
2022-12-11T09:25:11.985Z,98482.38
2022-12-11T09:27:56.513Z,98492.34
2022-12-11T09:30:25.981Z,98450.81
2022-12-11T09:33:00.675Z,98479.66
2022-12-11T09:35:30.452Z,98482.03
2022-12-11T09:37:59.906Z,98462.19
2022-12-11T09:40:39.947Z,98466.75
2022-12-11T09:43:23.716Z,98479.31
2022-12-11T09:45:55.798Z,98467.00
2022-12-11T09:48:33.971Z,98449.88
2022-12-11T09:51:11.891Z,98448.56
2022-12-11T09:53:39.994Z,98449.19
2022-12-11T09:56:18.081Z,98443.03
2022-12-11T09:59:01.389Z,98465.09
2022-12-11T10:01:44.300Z,98449.63
2022-12-11T10:04:40.933Z,98437.56
2022-12-11T10:07:18.949Z,98447.75
2022-12-11T10:09:53.723Z,98456.34
2022-12-11T10:12:34.465Z,98459.22
2022-12-11T10:15:33.935Z,98438.28
2022-12-11T10:18:12.186Z,98427.75
2022-12-11T10:20:46.883Z,98440.31
2022-12-11T10:23:23.470Z,98437.69
2022-12-11T10:26:01.225Z,98424.47
2022-12-11T10:28:31.558Z,98433.31
2022-12-11T10:31:14.665Z,98420.16
2022-12-11T10:33:49.716Z,98430.50
2022-12-11T10:36:31.325Z,98425.78
2022-12-11T10:38:59.721Z,98439.16
2022-12-11T10:41:40.938Z,98434.94
2022-12-11T10:44:19.365Z,98427.69
2022-12-11T10:47:06.727Z,98433.84
2022-12-11T10:49:37.604Z,98425.94
2022-12-11T10:52:11.946Z,98421.66
2022-12-11T10:54:42.259Z,98427.41
2022-12-11T10:57:15.292Z,98435.53
2022-12-11T10:59:48.322Z,98424.63
2022-12-11T11:02:27.054Z,98423.41
2022-12-11T11:04:57.838Z,98425.09
2022-12-11T11:07:34.564Z,98455.50
2022-12-11T11:10:21.018Z,98428.22
2022-12-11T11:12:50.599Z,98439.94
2022-12-11T11:15:25.219Z,98438.75
2022-12-11T11:17:59.912Z,98424.91
2022-12-11T11:20:38.953Z,98419.25
2022-12-11T11:23:14.960Z,98418.19
2022-12-11T11:25:59.916Z,98413.50
2022-12-11T11:28:32.708Z,98411.25
2022-12-11T11:31:04.352Z,98420.19
2022-12-11T11:33:39.095Z,98427.25
2022-12-11T11:36:22.710Z,98420.06
2022-12-11T11:39:07.591Z,98417.19
2022-12-11T11:41:47.346Z,98420.34
2022-12-11T11:44:20.157Z,98426.94
2022-12-11T11:47:01.985Z,98418.88
2022-12-11T11:49:55.334Z,98415.31
2022-12-11T11:52:31.311Z,98410.50
2022-12-11T11:55:10.790Z,98403.00
2022-12-11T11:57:46.868Z,98415.53
2022-12-11T12:00:28.883Z,98448.34
2022-12-11T12:03:13.888Z,98434.72
2022-12-11T12:05:56.223Z,98420.34
2022-12-11T12:08:37.618Z,98406.72
2022-12-11T12:11:17.368Z,98422.72
2022-12-11T12:13:56.511Z,98418.66
2022-12-11T12:16:53.997Z,98410.03
2022-12-11T12:19:37.582Z,98405.53
2022-12-11T12:22:15.915Z,98425.38
2022-12-11T12:25:09.693Z,98408.88
2022-12-11T12:27:53.860Z,98446.91
2022-12-11T12:30:27.834Z,98439.56
2022-12-11T12:36:27.804Z,98435.84
2022-12-11T12:39:05.193Z,98433.19
2022-12-11T12:41:44.200Z,98443.69
2022-12-11T12:44:18.340Z,98433.81
2022-12-11T12:46:58.780Z,98414.09
2022-12-11T12:49:52.066Z,98427.97
2022-12-11T12:52:35.468Z,98418.66
2022-12-11T12:55:23.258Z,98415.69
2022-12-11T12:57:57.959Z,98419.72
2022-12-11T13:00:34.951Z,98416.03
2022-12-11T13:03:05.030Z,98414.00
2022-12-11T13:05:37.293Z,98418.44
2022-12-11T13:08:11.869Z,98429.19
2022-12-11T13:10:48.555Z,98432.88
2022-12-11T13:13:54.489Z,98434.03
2022-12-11T13:16:33.118Z,98422.25
2022-12-11T13:19:01.980Z,98420.81
2022-12-11T13:21:37.849Z,98432.84
2022-12-11T13:24:28.521Z,98431.00
2022-12-11T13:27:26.191Z,98448.19
2022-12-11T13:30:11.145Z,98414.13
2022-12-11T13:32:46.054Z,98424.78
2022-12-11T13:35:21.289Z,98437.97
2022-12-11T13:37:58.938Z,98438.94
2022-12-11T13:40:35.013Z,98435.13
2022-12-11T13:43:18.701Z,98432.94
2022-12-11T13:45:58.442Z,98440.88
2022-12-11T13:48:38.599Z,98437.97
2022-12-11T13:51:10.118Z,98467.03
2022-12-11T13:53:42.227Z,98474.69
2022-12-11T13:56:23.005Z,98448.38
2022-12-11T13:58:57.963Z,98437.34
2022-12-11T14:01:31.201Z,98453.41
2022-12-11T14:04:08.157Z,98467.59
2022-12-11T14:06:43.374Z,98466.31
2022-12-11T14:09:20.568Z,98467.91
2022-12-11T14:11:58.212Z,98460.19
2022-12-11T14:14:43.235Z,98469.69
2022-12-11T14:17:14.845Z,98481.69
2022-12-11T14:19:49.058Z,98472.84
2022-12-11T14:22:27.355Z,98485.88
2022-12-11T14:25:00.082Z,98497.25
2022-12-11T14:27:29.056Z,98480.75
2022-12-11T14:30:21.360Z,98484.47
2022-12-11T14:33:00.875Z,98478.00
2022-12-11T14:35:38.960Z,98486.94
2022-12-11T14:38:15.420Z,98498.78
2022-12-11T14:40:52.937Z,98495.28
2022-12-11T14:43:27.005Z,98487.41
2022-12-11T14:46:04.250Z,98493.03
2022-12-11T14:48:38.936Z,98496.06
2022-12-11T14:51:27.705Z,98502.50
2022-12-11T14:54:05.301Z,98502.50
2022-12-11T14:56:51.495Z,98491.81
2022-12-11T14:59:32.643Z,98509.13
2022-12-11T15:02:06.459Z,98508.03
2022-12-11T15:04:41.379Z,98493.56
2022-12-11T15:07:26.781Z,98531.41
2022-12-11T15:09:57.863Z,98523.19
2022-12-11T15:12:29.342Z,98517.94
2022-12-11T15:15:02.698Z,98516.44
2022-12-11T15:17:35.084Z,98513.03
2022-12-11T15:20:14.527Z,98531.41
2022-12-11T15:22:44.855Z,98533.59
2022-12-11T15:25:21.227Z,98527.53
2022-12-11T15:27:56.245Z,98525.13
2022-12-11T15:30:36.084Z,98539.56
2022-12-11T15:33:37.818Z,98546.53
2022-12-11T15:36:29.170Z,98555.94
2022-12-11T15:39:03.452Z,98564.91
2022-12-11T15:41:35.350Z,98549.28
2022-12-11T15:44:19.406Z,98550.38
2022-12-11T15:46:53.361Z,98552.03
2022-12-11T15:49:39.754Z,98549.47
2022-12-11T15:52:09.930Z,98543.88
2022-12-11T15:54:54.951Z,98562.59
2022-12-11T15:57:34.090Z,98558.94
2022-12-11T16:00:06.443Z,98548.63
2022-12-11T16:02:39.267Z,98555.22
2022-12-11T16:05:10.683Z,98550.41
2022-12-11T16:07:39.493Z,98559.66
2022-12-11T16:10:17.324Z,98555.84
2022-12-11T16:12:47.736Z,98566.47
2022-12-11T16:15:23.159Z,98558.28
2022-12-11T16:17:59.785Z,98565.78
2022-12-11T16:20:29.441Z,98574.16
2022-12-11T16:22:59.604Z,98563.84
2022-12-11T16:25:28.597Z,98563.63
2022-12-11T16:27:58.425Z,98565.56
2022-12-11T16:30:28.929Z,98562.00
2022-12-11T16:33:08.573Z,98555.88
2022-12-11T16:35:42.987Z,98549.47
2022-12-11T16:38:14.082Z,98560.69
2022-12-11T16:40:43.101Z,98561.31
2022-12-11T16:43:11.907Z,98552.91
2022-12-11T16:45:42.112Z,98563.94
2022-12-11T16:48:21.960Z,98553.31
2022-12-11T16:51:10.382Z,98552.38
2022-12-11T16:53:48.390Z,98563.56
2022-12-11T16:56:19.119Z,98554.03
2022-12-11T16:58:49.905Z,98554.63
2022-12-11T17:01:19.458Z,98550.03
2022-12-11T17:03:51.119Z,98556.31
2022-12-11T17:06:33.926Z,98551.81
2022-12-11T17:09:02.869Z,98552.47
2022-12-11T17:11:32.056Z,98546.34
2022-12-11T17:14:03.651Z,98550.25
2022-12-11T17:16:48.288Z,98556.19
2022-12-11T17:19:27.153Z,98563.84
2022-12-11T17:22:05.215Z,98549.50
2022-12-11T17:24:40.885Z,98544.66
2022-12-11T17:27:25.975Z,98544.13
2022-12-11T17:30:05.506Z,98548.84
2022-12-11T17:32:57.118Z,98554.47
2022-12-11T17:35:29.772Z,98558.06
2022-12-11T17:38:12.893Z,98559.00
2022-12-11T17:40:50.347Z,98569.56
2022-12-11T17:43:24.716Z,98566.88
2022-12-11T17:45:55.832Z,98564.25
2022-12-11T17:48:30.204Z,98554.50
2022-12-11T17:51:13.206Z,98565.31
2022-12-11T17:53:46.667Z,98561.22
2022-12-11T17:56:17.203Z,98582.44
2022-12-11T17:58:46.969Z,98570.47
2022-12-11T18:01:21.865Z,98569.84
2022-12-11T18:04:06.841Z,98574.97
2022-12-11T18:06:40.786Z,98573.84
2022-12-11T18:09:21.982Z,98577.81
2022-12-11T18:11:52.220Z,98578.34
2022-12-11T18:14:23.692Z,98584.53
2022-12-11T18:16:54.167Z,98583.59
2022-12-11T18:19:34.270Z,98587.91
2022-12-11T18:22:18.436Z,98581.81
2022-12-11T18:25:09.580Z,98581.41
2022-12-11T18:27:52.041Z,98585.59
2022-12-11T18:30:37.493Z,98599.13
2022-12-11T18:33:07.674Z,98597.66
2022-12-11T18:35:52.069Z,98600.69
2022-12-11T18:38:24.835Z,98589.75
2022-12-11T18:41:02.283Z,98592.91
2022-12-11T18:43:34.278Z,98597.00
2022-12-11T18:46:24.471Z,98597.72
2022-12-11T18:48:58.296Z,98596.59
2022-12-11T18:51:34.613Z,98596.69
2022-12-11T18:54:15.694Z,98596.06
2022-12-11T18:56:48.440Z,98586.22
2022-12-11T18:59:25.661Z,98601.56
2022-12-11T19:02:05.324Z,98593.22
2022-12-11T19:04:39.349Z,98591.06
2022-12-11T19:07:16.970Z,98586.72
2022-12-11T19:09:48.425Z,98593.91
2022-12-11T19:12:43.328Z,98584.56
2022-12-11T19:15:22.265Z,98583.59
2022-12-11T19:17:57.936Z,98583.91
2022-12-11T19:20:49.166Z,98587.16
2022-12-11T19:23:31.334Z,98579.22
2022-12-11T19:29:39.662Z,98576.03
2022-12-11T19:32:20.775Z,98576.34
2022-12-11T19:35:06.180Z,98585.81
2022-12-11T19:37:58.996Z,98575.59
2022-12-11T19:40:38.569Z,98580.78
2022-12-11T19:43:08.889Z,98575.94
2022-12-11T19:45:43.717Z,98573.53
2022-12-11T19:48:21.395Z,98586.22
2022-12-11T19:50:52.324Z,98570.16
2022-12-11T19:53:43.894Z,98576.47
2022-12-11T19:56:19.661Z,98575.09
2022-12-11T19:58:55.205Z,98569.94
2022-12-11T20:01:36.066Z,98568.25
2022-12-11T20:04:14.913Z,98573.09
2022-12-11T20:06:56.920Z,98573.19
2022-12-11T20:09:38.798Z,98574.16
2022-12-11T20:12:10.909Z,98581.72
2022-12-11T20:14:49.254Z,98577.63
2022-12-11T20:17:27.031Z,98579.31
2022-12-11T20:19:57.175Z,98581.91
2022-12-11T20:22:27.199Z,98581.19
2022-12-11T20:24:57.695Z,98586.72
2022-12-11T20:27:28.707Z,98572.91
2022-12-11T20:29:58.223Z,98586.44
2022-12-11T20:32:29.732Z,98580.84
2022-12-11T20:34:59.634Z,98569.44
2022-12-11T20:37:30.552Z,98587.25
2022-12-11T20:40:09.593Z,98584.28
2022-12-11T20:42:40.023Z,98583.47
2022-12-11T20:45:12.799Z,98581.16
2022-12-11T20:47:44.564Z,98585.47
2022-12-11T20:50:15.255Z,98578.34
2022-12-11T20:52:44.419Z,98578.13
2022-12-11T20:55:17.120Z,98573.94
2022-12-11T20:57:47.964Z,98572.91
2022-12-11T21:00:19.865Z,98584.31
2022-12-11T21:02:51.428Z,98579.78
2022-12-11T21:05:23.622Z,98591.16
2022-12-11T21:07:57.108Z,98584.22
2022-12-11T21:10:26.017Z,98571.09
2022-12-11T21:12:55.530Z,98572.34
2022-12-11T21:15:24.770Z,98572.25
2022-12-11T21:17:55.491Z,98574.47
2022-12-11T21:20:26.098Z,98586.63
2022-12-11T21:22:55.308Z,98586.84
2022-12-11T21:25:23.919Z,98581.06
2022-12-11T21:27:52.962Z,98591.47
2022-12-11T21:30:21.549Z,98590.44
2022-12-11T21:32:50.269Z,98588.97
2022-12-11T21:35:20.666Z,98594.91
2022-12-11T21:37:49.867Z,98598.19
2022-12-11T21:40:18.159Z,98591.78
2022-12-11T21:42:46.367Z,98593.25
2022-12-11T21:45:52.352Z,98603.31
2022-12-11T21:48:03.632Z,98601.66
2022-12-11T21:50:33.702Z,98586.72
2022-12-11T21:53:02.708Z,98593.47
2022-12-11T21:55:30.925Z,98587.91
2022-12-11T21:57:59.072Z,98575.84
2022-12-11T22:00:29.076Z,98591.06
2022-12-11T22:02:57.139Z,98585.28
2022-12-11T22:05:25.480Z,98579.41
2022-12-11T22:07:55.435Z,98591.69
2022-12-11T22:10:23.704Z,98588.31
2022-12-11T22:12:51.746Z,98582.22
2022-12-11T22:15:19.847Z,98584.75
2022-12-11T22:17:48.007Z,98591.34
2022-12-11T22:20:16.068Z,98582.75
2022-12-11T22:22:44.154Z,98586.53
2022-12-11T22:25:14.057Z,98586.13
2022-12-11T22:27:42.465Z,98602.47
2022-12-11T22:30:12.024Z,98592.00
2022-12-11T22:32:40.355Z,98588.44
2022-12-11T22:35:09.289Z,98588.03
2022-12-11T22:37:37.532Z,98599.25
2022-12-11T22:40:06.768Z,98588.97
2022-12-11T22:42:36.479Z,98584.03
2022-12-11T22:45:05.047Z,98587.81
2022-12-11T22:47:33.186Z,98592.72
2022-12-11T22:50:01.235Z,98583.72
2022-12-11T22:52:29.905Z,98591.88
2022-12-11T22:54:58.080Z,98579.69
2022-12-11T22:57:26.127Z,98585.16
2022-12-11T22:59:57.090Z,98596.91
2022-12-11T23:02:25.350Z,98594.59
2022-12-11T23:04:53.444Z,98596.69
2022-12-11T23:07:21.475Z,98608.47
2022-12-11T23:09:49.554Z,98603.22
2022-12-11T23:12:18.889Z,98601.97
2022-12-11T23:14:47.028Z,98590.59
2022-12-11T23:17:16.522Z,98593.78
2022-12-11T23:19:46.009Z,98590.41
2022-12-11T23:22:14.282Z,98581.72
2022-12-11T23:24:42.541Z,98590.19
2022-12-11T23:27:10.921Z,98598.78
2022-12-11T23:29:39.214Z,98593.78
2022-12-11T23:32:07.274Z,98588.69
2022-12-11T23:34:37.652Z,98590.91
2022-12-11T23:37:05.724Z,98585.88
2022-12-11T23:39:33.802Z,98591.22
2022-12-11T23:42:02.110Z,98587.44
2022-12-11T23:44:30.133Z,98594.78
2022-12-11T23:47:12.225Z,98584.59
2022-12-11T23:49:58.531Z,98593.53
2022-12-11T23:52:30.675Z,98594.72
2022-12-11T23:55:00.290Z,98593.63
2022-12-11T23:57:29.232Z,98586.22
